Relevés horaires Melle (Belgique)


Relevés horaires à Melle - Dimanche 08 Nov. 2015
Heure UTC1 Température [°C] Vent [km/h] Hum. [%] Pres.4 [hPa] Visi. [Km] Nébu. [octa] Préc.5 [mm] Cond.
2m. Res. Ros. Dir.2 Vit. Moy. Raf.3
23:00 17.0 17.0 14.3 OSO 9.3 11.1 16.7 84 1019.9(0.8/3h) -- -- -- --
22:00 17.4 17.4 14.4 SO 9.3 13.0 20.4 83 1019.4(0.2/3h) -- -- -- --
21:00 17.7 17.6 14.6 SO 13.0 13.0 20.4 82 1019.1(-0.5/3h) -- -- -- --
20:00 17.5 17.5 15.0 SSO 9.3 11.1 18.5 85 1019.1(-1.0/3h) -- -- -- --
19:00 17.1 17 14.8 SSO 11.1 13.0 18.5 86 1019.2(-2.0/3h) -- -- -- --
18:00 16.9 16.8 14.9 S 11.1 11.1 16.7 88 1019.6(-2.3/3h) -- -- 0.1/12h
--
17:00 16.8 16.8 14.7 SSE 5.6 7.4 9.3 87 1020.1(-2.9/3h) -- -- -- --
16:00 17.0 17.0 14.6 S 7.4 9.3 14.8 86 1021.2(-2.9/3h) -- -- -- --
15:00 17.7 17.7 14.7 S 9.3 11.1 16.7 83 1021.9(-3.6/3h) -- -- -- --
14:00 17.7 17.7 14.4 S 9.3 9.3 14.8 81 1023(-3.6/3h) -- -- -- --
13:00 16.8 16.8 13.1 SSE 9.3 9.3 14.8 79 1024.1(-3.3/3h) -- -- -- --
12:00 16.2 16.1 12.5 S 9.3 9.3 13.0 79 1025.5(-2.9/3h) -- -- 0.1/6h
--
11:00 15.2 15.2 12.1 S 7.4 7.4 13.0 82 1026.6(-2.1/3h) -- -- -- --
10:00 14.3 14.3 11.6 SSE 5.6 7.4 11.1 84 1027.4(-1.1/3h) -- -- -- --
09:00 12.7 12.7 11.8 SE 3.7 5.6 7.4 94 1028.4(-0.3/3h) -- -- -- --
08:00 11.1 11.1 10.3 SE 3.7 5.6 7.4 95 1028.7(-0.1/3h) -- -- -- --
07:00 10.1 10.1 9.3 SSE 3.7 5.6 7.4 95 1028.5(-0.4/3h) -- -- -- --
06:00 9.5 9.5 8.6 SSE 3.7 5.6 7.4 94 1028.7(0.3/3h) -- -- 0.5/12h
--
05:00 10.7 10.7 9.9 SSO 3.7 5.6 7.4 95 1028.8(0.1/3h) -- -- -- --
04:00 10.5 10.5 9.5 SO 3.7 3.7 5.6 94 1028.9(0.2/3h) -- -- -- --
03:00 11.3 11.3 10.1 SO 1.9 5.6 7.4 92 1028.4(0.2/3h) -- -- -- --
02:00 12.0 12.0 10.4 OSO 3.7 -- 7.4 90 1028.7(1.0/3h) -- -- -- --
01:00 12.8 12.8 11.1 OSO 5.6 5.6 7.4 89 1028.7(2.6/3h) -- -- -- --
00:00 13.5 13.5 11.5 OSO 3.7 14.8 24.1 88 1028.2(2.9/3h) -- -- 0.4/6h
--

1 Coordinated Universal Time. Actuellement il est 01:00 locale et 23:00 UTC.

2 Le vent souffle depuis la direction indiquée vers la direction oposée.

3 Les rafales max. sont disponible 40 min après l'heure du relevé.

4 Pour les stations d'altitude (plus de 600m) le géopotentiel du niveau le plus proche de la pression obligatoire est indiqué.

5 Les stations disposant d'un diffuseur peuvent indiquer "trace". Cela signifie que des précipitations ont touchés le sol mais que la quantité est inférieure à 0.1 mm.

Récapitulatif de la journée
Température [°C] Vent [km/h] Ensoleillement4 [h] Precipitations totale5 [mm] Pression [Hpa]
Min1 Max.2 Moy.3 Max. Min Max.
8.9 18.0 8.7 24.1 0 h 0 min 0 1019.1 1028.9

1 Température minimale relevée entre 18:00 UTC la veille et 18:00 UTC le jour donné.

2 Température maximale relevée entre 06:00 UTC le jour donné et 06:00 UTC le lendemain.

3 Vent moyen de la journée basé sur les relevés horaires.

4 Ensoleillement en heures relevé entre 06:00 UTC la veille et 06:00 UTC le jour donné.

5 Précipitations totales tombées entre 06:00 UTC la jour donné et 06:00 UTC le lendemain.

Graphiques horaires